Portland — WDG2201 — position and weather

sailwx.info

Track history (hours):
 
Tides and Currents Weather Stations Pressure Air Temp Water Temp Dewpoint Dewpoint Depression Visibility Wind Speed Wind Dir Waves Ship Positions

Portland

Owner: Shaver Transportation Company, Portland, OR. More information available from US FCC via Universal Licensing System and Coast Guard Vessel Documentation Center.

Last reported at 2016-Sep-25 14:31 UTC. Time now 2016-Sep-25 15:42 UTC.
Position N 46°05' W 122°56'.

Length 27 m; draft 4 m.

Type: Towing. MMSI: 367315814.

Date/timePositionNaut miles runAvg speedWind from/ knotsBaromVisibWave heightAir tempDewpointWater temp
2016-Sep-25 14:31N 46°05' W 122°56'0 0.0
2016-Sep-25 12:31N 46°05' W 122°56'0 0.0
2016-Sep-25 11:31N 46°05' W 122°56'0 0.0
2016-Sep-25 10:28N 46°05' W 122°56'0 0.0
2016-Sep-25 09:31N 46°05' W 122°56'0 0.0
2016-Sep-25 07:31N 46°05' W 122°56'0 0.0
2016-Sep-25 04:28N 46°05' W 122°56'0 0.0
2016-Sep-25 00:31N 46°05' W 122°56'0 0.0
2016-Sep-24 22:28N 46°05' W 122°56'0 0.4
2016-Sep-24 21:33N 46°06' W 122°56'0 0.2
2016-Sep-24 19:33N 46°05' W 122°56'0 0.0
2016-Sep-24 18:33N 46°05' W 122°56'0 0.0
2016-Sep-24 17:33N 46°05' W 122°56'0 0.0
2016-Sep-24 16:33N 46°05' W 122°56'0 0.0
2016-Sep-24 14:33N 46°05' W 122°56'0 0.0
2016-Sep-24 12:33N 46°05' W 122°56'0 0.0
2016-Sep-24 10:33N 46°05' W 122°56'0 0.0
2016-Sep-24 09:33N 46°05' W 122°56'37 6.1
2016-Sep-24 03:33N 46°12' W 123°48'3 2.5
2016-Sep-24 02:33N 46°11' W 123°52'0 0.1
2016-Sep-24 01:31N 46°11' W 123°52'5 4.7
2016-Sep-24 00:33N 46°13' W 123°46'35 7.1
2016-Sep-23 19:33N 46°05' W 122°56'0 0.0
2016-Sep-23 17:33N 46°05' W 122°56'0 0.0
2016-Sep-23 16:30N 46°05' W 122°56'0 0.0
2016-Sep-23 15:33N 46°05' W 122°56'0 0.0
2016-Sep-23 13:33N 46°05' W 122°56'4 1.1
2016-Sep-23 09:34N 46°02' W 122°53'3 1.0
2016-Sep-23 06:33N 45°59' W 122°50'8 4.2
2016-Sep-23 04:33N 45°51' W 122°47'9 8.6
2016-Sep-23 03:33N 45°42' W 122°46'8 7.6
2016-Sep-23 02:33N 45°35' W 122°45'2 1.5
2016-Sep-23 01:32N 45°34' W 122°44'0 0.0
2016-Sep-23 00:32N 45°34' W 122°44'0 0.0
2016-Sep-22 23:33N 45°34' W 122°44'0 0.0
2016-Sep-22 20:33N 45°34' W 122°44'3 0.3
2016-Sep-22 12:33N 45°32' W 122°40'3 0.3
2016-Sep-22 04:33N 45°34' W 122°44'0 0.0
2016-Sep-22 03:33N 45°34' W 122°44'0 0.0
2016-Sep-22 00:33N 45°34' W 122°44'0 0.0
2016-Sep-21 23:30N 45°34' W 122°44'0 0.0
2016-Sep-21 22:33N 45°34' W 122°44'0 0.0
2016-Sep-21 19:33N 45°34' W 122°44'0 0.0
2016-Sep-21 16:30N 45°34' W 122°44'0 0.0
2016-Sep-21 09:33N 45°34' W 122°44'0 0.0
2016-Sep-21 08:15N 45°34' W 122°44'0 0.0
2016-Sep-21 03:27N 45°34' W 122°44'0 0.0
2016-Sep-21 02:33N 45°34' W 122°44'0 0.0
2016-Sep-20 17:27N 45°34' W 122°44'0 0.0
2016-Sep-20 14:33N 45°34' W 122°44'0 0.0
2016-Sep-20 13:28N 45°34' W 122°44'0 0.0
2016-Sep-20 10:16N 45°34' W 122°44'0 0.0
2016-Sep-20 08:22N 45°34' W 122°44'0 0.0
2016-Sep-20 07:25N 45°34' W 122°44'0 0.0
2016-Sep-20 06:31N 45°34' W 122°44'0 0.0
2016-Sep-20 02:22N 45°34' W 122°44'0 0.0
2016-Sep-19 23:34N 45°34' W 122°44'0 0.0
2016-Sep-19 19:33N 45°34' W 122°44'0 0.0
2016-Sep-19 18:34N 45°34' W 122°44'0 0.0
2016-Sep-19 16:33N 45°34' W 122°44'5 2.5
2016-Sep-19 14:33N 45°39' W 122°45'0 0.0
2016-Sep-19 13:33N 45°39' W 122°45'0 0.0
2016-Sep-19 12:33N 45°39' W 122°45'1110.6
2016-Sep-19 11:33N 45°49' W 122°48'17 8.7
2016-Sep-19 09:33N 46°05' W 122°56'0 0.0
2016-Sep-19 07:33N 46°05' W 122°56'0 0.0
2016-Sep-19 06:33N 46°05' W 122°56'0 0.0
2016-Sep-19 03:33N 46°05' W 122°56'0 0.0
2016-Sep-19 02:33N 46°05' W 122°56'2 1.1
2016-Sep-19 00:34N 46°07' W 122°58'2 0.5
2016-Sep-18 19:33N 46°05' W 122°56'0 0.0
2016-Sep-18 15:33N 46°05' W 122°56'0 0.0
2016-Sep-18 14:33N 46°05' W 122°56'0 0.0
2016-Sep-18 10:30N 46°05' W 122°56'0 0.0
2016-Sep-18 09:33N 46°05' W 122°56'0 0.0
2016-Sep-18 02:33N 46°05' W 122°56'0 0.0
2016-Sep-18 01:27N 46°05' W 122°56'0 0.0
2016-Sep-18 00:33N 46°05' W 122°56'0 0.0
2016-Sep-17 22:27N 46°05' W 122°56'0 0.0
2016-Sep-17 21:33N 46°05' W 122°56'0 0.2
2016-Sep-17 20:33N 46°06' W 122°56'0 0.1
2016-Sep-17 19:06N 46°05' W 122°56'0 0.0
2016-Sep-17 13:32N 46°05' W 122°56'0 0.0
2016-Sep-17 12:32N 46°05' W 122°56'0 0.0
2016-Sep-17 10:32N 46°05' W 122°56'0 0.0
2016-Sep-17 09:32N 46°05' W 122°56'0 0.0
2016-Sep-17 08:32N 46°05' W 122°56'0 0.0
2016-Sep-17 07:32N 46°05' W 122°56'0 0.0
2016-Sep-17 05:32N 46°05' W 122°56'0 0.0
2016-Sep-17 04:32N 46°05' W 122°56'0 0.0
2016-Sep-17 00:32N 46°05' W 122°56'0 0.0
2016-Sep-16 17:32N 46°05' W 122°56'0 0.0
2016-Sep-16 15:32N 46°05' W 122°56'0 0.0
2016-Sep-16 12:32N 46°05' W 122°56'0 0.0
2016-Sep-16 09:26N 46°05' W 122°56'1 0.3
2016-Sep-16 07:33N 46°06' W 122°56'5 1.3
2016-Sep-16 03:33N 46°02' W 122°53'3 3.0
2016-Sep-16 02:33N 45°59' W 122°50'0 0.1
2016-Sep-16 00:34N 45°59' W 122°50'3 1.4
2016-Sep-15 22:33N 46°01' W 122°52'5 5.0
2016-Sep-15 21:34N 46°05' W 122°56'0 0.0
2016-Sep-15 20:31N 46°05' W 122°56'0 0.0
2016-Sep-15 18:28N 46°05' W 122°56'  
Track history (hours):
 
Tides and Currents Weather Stations Pressure Air Temp Water Temp Dewpoint Dewpoint Depression Visibility Wind Speed Wind Dir Waves Ship Positions

Portland

Owner: Shaver Transportation Company, Portland, OR. More information available from US FCC via Universal Licensing System and Coast Guard Vessel Documentation Center.

Last reported at 2016-Sep-25 14:31 UTC. Time now 2016-Sep-25 15:42 UTC.
Position N 46°05' W 122°56'.

Length 27 m; draft 4 m.

Type: Towing. MMSI: 367315814.

Date/timePositionNaut miles runAvg speedWind from/ knotsBaromVisibWave heightAir tempDewpointWater temp
2016-Sep-25 14:31N 46°05' W 122°56'0 0.0
2016-Sep-25 12:31N 46°05' W 122°56'0 0.0
2016-Sep-25 11:31N 46°05' W 122°56'0 0.0
2016-Sep-25 10:28N 46°05' W 122°56'0 0.0
2016-Sep-25 09:31N 46°05' W 122°56'0 0.0
2016-Sep-25 07:31N 46°05' W 122°56'0 0.0
2016-Sep-25 04:28N 46°05' W 122°56'0 0.0
2016-Sep-25 00:31N 46°05' W 122°56'0 0.0
2016-Sep-24 22:28N 46°05' W 122°56'0 0.4
2016-Sep-24 21:33N 46°06' W 122°56'0 0.2
2016-Sep-24 19:33N 46°05' W 122°56'0 0.0
2016-Sep-24 18:33N 46°05' W 122°56'0 0.0
2016-Sep-24 17:33N 46°05' W 122°56'0 0.0
2016-Sep-24 16:33N 46°05' W 122°56'0 0.0
2016-Sep-24 14:33N 46°05' W 122°56'0 0.0
2016-Sep-24 12:33N 46°05' W 122°56'0 0.0
2016-Sep-24 10:33N 46°05' W 122°56'0 0.0
2016-Sep-24 09:33N 46°05' W 122°56'37 6.1
2016-Sep-24 03:33N 46°12' W 123°48'3 2.5
2016-Sep-24 02:33N 46°11' W 123°52'0 0.1
2016-Sep-24 01:31N 46°11' W 123°52'5 4.7
2016-Sep-24 00:33N 46°13' W 123°46'35 7.1
2016-Sep-23 19:33N 46°05' W 122°56'0 0.0
2016-Sep-23 17:33N 46°05' W 122°56'0 0.0
2016-Sep-23 16:30N 46°05' W 122°56'0 0.0
2016-Sep-23 15:33N 46°05' W 122°56'0 0.0
2016-Sep-23 13:33N 46°05' W 122°56'4 1.1
2016-Sep-23 09:34N 46°02' W 122°53'3 1.0
2016-Sep-23 06:33N 45°59' W 122°50'8 4.2
2016-Sep-23 04:33N 45°51' W 122°47'9 8.6
2016-Sep-23 03:33N 45°42' W 122°46'8 7.6
2016-Sep-23 02:33N 45°35' W 122°45'2 1.5
2016-Sep-23 01:32N 45°34' W 122°44'0 0.0
2016-Sep-23 00:32N 45°34' W 122°44'0 0.0
2016-Sep-22 23:33N 45°34' W 122°44'0 0.0
2016-Sep-22 20:33N 45°34' W 122°44'3 0.3
2016-Sep-22 12:33N 45°32' W 122°40'3 0.3
2016-Sep-22 04:33N 45°34' W 122°44'0 0.0
2016-Sep-22 03:33N 45°34' W 122°44'0 0.0
2016-Sep-22 00:33N 45°34' W 122°44'0 0.0
2016-Sep-21 23:30N 45°34' W 122°44'0 0.0
2016-Sep-21 22:33N 45°34' W 122°44'0 0.0
2016-Sep-21 19:33N 45°34' W 122°44'0 0.0
2016-Sep-21 16:30N 45°34' W 122°44'0 0.0
2016-Sep-21 09:33N 45°34' W 122°44'0 0.0
2016-Sep-21 08:15N 45°34' W 122°44'0 0.0
2016-Sep-21 03:27N 45°34' W 122°44'0 0.0
2016-Sep-21 02:33N 45°34' W 122°44'0 0.0
2016-Sep-20 17:27N 45°34' W 122°44'0 0.0
2016-Sep-20 14:33N 45°34' W 122°44'0 0.0
2016-Sep-20 13:28N 45°34' W 122°44'0 0.0
2016-Sep-20 10:16N 45°34' W 122°44'0 0.0
2016-Sep-20 08:22N 45°34' W 122°44'0 0.0
2016-Sep-20 07:25N 45°34' W 122°44'0 0.0
2016-Sep-20 06:31N 45°34' W 122°44'0 0.0
2016-Sep-20 02:22N 45°34' W 122°44'0 0.0
2016-Sep-19 23:34N 45°34' W 122°44'0 0.0
2016-Sep-19 19:33N 45°34' W 122°44'0 0.0
2016-Sep-19 18:34N 45°34' W 122°44'0 0.0
2016-Sep-19 16:33N 45°34' W 122°44'5 2.5
2016-Sep-19 14:33N 45°39' W 122°45'0 0.0
2016-Sep-19 13:33N 45°39' W 122°45'0 0.0
2016-Sep-19 12:33N 45°39' W 122°45'1110.6
2016-Sep-19 11:33N 45°49' W 122°48'17 8.7
2016-Sep-19 09:33N 46°05' W 122°56'0 0.0
2016-Sep-19 07:33N 46°05' W 122°56'0 0.0
2016-Sep-19 06:33N 46°05' W 122°56'0 0.0
2016-Sep-19 03:33N 46°05' W 122°56'0 0.0
2016-Sep-19 02:33N 46°05' W 122°56'2 1.1
2016-Sep-19 00:34N 46°07' W 122°58'2 0.5
2016-Sep-18 19:33N 46°05' W 122°56'0 0.0
2016-Sep-18 15:33N 46°05' W 122°56'0 0.0
2016-Sep-18 14:33N 46°05' W 122°56'0 0.0
2016-Sep-18 10:30N 46°05' W 122°56'0 0.0
2016-Sep-18 09:33N 46°05' W 122°56'0 0.0
2016-Sep-18 02:33N 46°05' W 122°56'0 0.0
2016-Sep-18 01:27N 46°05' W 122°56'0 0.0
2016-Sep-18 00:33N 46°05' W 122°56'0 0.0
2016-Sep-17 22:27N 46°05' W 122°56'0 0.0
2016-Sep-17 21:33N 46°05' W 122°56'0 0.2
2016-Sep-17 20:33N 46°06' W 122°56'0 0.1
2016-Sep-17 19:06N 46°05' W 122°56'0 0.0
2016-Sep-17 13:32N 46°05' W 122°56'0 0.0
2016-Sep-17 12:32N 46°05' W 122°56'0 0.0
2016-Sep-17 10:32N 46°05' W 122°56'0 0.0
2016-Sep-17 09:32N 46°05' W 122°56'0 0.0
2016-Sep-17 08:32N 46°05' W 122°56'0 0.0
2016-Sep-17 07:32N 46°05' W 122°56'0 0.0
2016-Sep-17 05:32N 46°05' W 122°56'0 0.0
2016-Sep-17 04:32N 46°05' W 122°56'0 0.0
2016-Sep-17 00:32N 46°05' W 122°56'0 0.0
2016-Sep-16 17:32N 46°05' W 122°56'0 0.0
2016-Sep-16 15:32N 46°05' W 122°56'0 0.0
2016-Sep-16 12:32N 46°05' W 122°56'0 0.0
2016-Sep-16 09:26N 46°05' W 122°56'1 0.3
2016-Sep-16 07:33N 46°06' W 122°56'5 1.3
2016-Sep-16 03:33N 46°02' W 122°53'3 3.0
2016-Sep-16 02:33N 45°59' W 122°50'0 0.1
2016-Sep-16 00:34N 45°59' W 122°50'3 1.4
2016-Sep-15 22:33N 46°01' W 122°52'5 5.0
2016-Sep-15 21:34N 46°05' W 122°56'0 0.0
2016-Sep-15 20:31N 46°05' W 122°56'0 0.0
2016-Sep-15 18:28N 46°05' W 122°56'  

Dump ship's entire track history